Time;durP1;ratioP1;P1;durP2;ratioP2;P2;SDS_P1;SDS_P2;PMS_P1;PMS_P2;Temp;Humidity;BMP_temperature;BMP_pressure;BME280_temperature;BME280_humidity;BME280_pressure;Samples;Min_cycle;Max_cycle;Signal;HPM_P1;HPM_P2
2024/01/21 00:02:03;;;;;;;4.70;4.30;;;2.10;99.90;;;;;;5008102;28;20597;-62
2024/01/21 00:04:31;;;;;;;5.73;4.73;;;2.10;99.90;;;;;;5002814;28;20708;-61
2024/01/21 00:06:59;;;;;;;7.83;4.50;;;2.10;99.90;;;;;;5015418;28;20563;-62
2024/01/21 00:09:28;;;;;;;5.10;4.60;;;2.10;99.90;;;;;;5012776;28;20584;-62
2024/01/21 00:11:56;;;;;;;5.80;4.03;;;2.10;99.90;;;;;;5010952;28;20503;-61
2024/01/21 00:14:24;;;;;;;4.67;4.03;;;2.10;99.90;;;;;;5013189;28;20566;-61
2024/01/21 00:16:54;;;;;;;4.63;4.03;;;2.20;99.90;;;;;;5010632;28;20479;-61
2024/01/21 00:19:22;;;;;;;5.00;3.83;;;2.20;99.90;;;;;;5010363;28;20550;-62
2024/01/21 00:21:50;;;;;;;5.97;4.20;;;2.20;99.90;;;;;;5011692;28;21031;-61
2024/01/21 00:24:18;;;;;;;4.83;3.80;;;2.20;99.90;;;;;;5009155;28;20495;-61
2024/01/21 00:26:45;;;;;;;4.50;3.93;;;2.20;99.90;;;;;;5012295;28;20471;-61
2024/01/21 00:29:16;;;;;;;5.30;3.67;;;2.20;99.90;;;;;;5014787;28;20473;-61
2024/01/21 00:31:44;;;;;;;4.20;3.67;;;2.20;99.90;;;;;;5013096;28;20590;-61
2024/01/21 00:34:13;;;;;;;4.20;3.23;;;2.20;99.90;;;;;;5006618;28;20536;-61
2024/01/21 00:36:41;;;;;;;4.37;3.57;;;2.20;99.90;;;;;;5013261;28;20487;-61
2024/01/21 00:39:10;;;;;;;4.13;3.27;;;2.20;99.90;;;;;;5009147;28;20475;-61
2024/01/21 00:41:38;;;;;;;3.67;3.20;;;2.20;99.90;;;;;;5011908;28;21008;-62
2024/01/21 00:44:11;;;;;;;4.20;3.50;;;2.20;99.90;;;;;;5014353;28;20502;-62
2024/01/21 00:46:39;;;;;;;3.83;3.43;;;2.20;99.90;;;;;;5007073;28;20895;-62
2024/01/21 00:49:07;;;;;;;3.60;3.30;;;2.20;99.90;;;;;;5010219;28;20475;-62
2024/01/21 00:51:37;;;;;;;4.77;3.10;;;2.30;99.90;;;;;;5007277;28;20502;-62
2024/01/21 00:54:04;;;;;;;4.20;3.00;;;2.30;99.90;;;;;;5008956;28;20968;-61
2024/01/21 00:56:32;;;;;;;3.43;2.67;;;2.30;99.90;;;;;;5017186;28;20552;-61
2024/01/21 00:59:00;;;;;;;3.77;2.90;;;2.30;99.90;;;;;;5012065;28;20471;-61
2024/01/21 01:01:28;;;;;;;4.47;3.80;;;2.30;99.90;;;;;;5010575;28;20495;-62
2024/01/21 01:03:56;;;;;;;4.40;2.33;;;2.30;99.90;;;;;;5002737;28;20721;-62
2024/01/21 01:06:24;;;;;;;3.90;3.07;;;2.40;98.50;;;;;;5008489;28;20559;-61
2024/01/21 01:08:54;;;;;;;3.70;3.10;;;2.30;99.90;;;;;;5011950;28;20573;-62
2024/01/21 01:11:22;;;;;;;6.03;3.33;;;2.40;99.90;;;;;;5012488;28;20979;-61
2024/01/21 01:13:50;;;;;;;3.43;3.13;;;2.30;99.90;;;;;;5010744;28;20954;-61
2024/01/21 01:16:18;;;;;;;2.93;2.63;;;2.30;99.90;;;;;;5005396;28;20540;-61
2024/01/21 01:18:46;;;;;;;3.47;3.20;;;2.30;99.90;;;;;;5009911;28;20573;-61
2024/01/21 01:21:14;;;;;;;3.47;3.13;;;2.30;99.90;;;;;;5012227;28;20490;-61
2024/01/21 01:23:42;;;;;;;3.87;3.03;;;2.30;99.90;;;;;;5025959;28;21059;-61
2024/01/21 01:26:11;;;;;;;3.10;2.70;;;2.20;99.90;;;;;;5015395;28;20471;-62
2024/01/21 01:28:39;;;;;;;5.70;4.90;;;2.20;99.90;;;;;;5013937;28;20471;-61
2024/01/21 01:31:16;;;;;;;3.33;2.80;;;2.20;99.90;;;;;;5019088;28;20483;-62
2024/01/21 01:33:44;;;;;;;3.13;2.87;;;2.20;99.90;;;;;;5019267;28;20471;-62
2024/01/21 01:36:13;;;;;;;3.10;2.80;;;2.20;99.90;;;;;;5013343;28;20507;-61
2024/01/21 01:38:41;;;;;;;5.57;3.00;;;2.10;99.90;;;;;;5016331;28;20467;-61
2024/01/21 01:41:12;;;;;;;3.97;2.63;;;2.10;99.90;;;;;;5010962;28;20580;-61
2024/01/21 01:43:40;;;;;;;3.40;2.60;;;2.10;99.90;;;;;;5021494;28;20618;-60
2024/01/21 01:46:08;;;;;;;2.80;2.60;;;2.20;99.90;;;;;;5029053;28;20543;-61
2024/01/21 01:48:36;;;;;;;4.40;3.13;;;2.20;99.90;;;;;;5029596;28;20588;-63
2024/01/21 01:51:05;;;;;;;2.97;2.70;;;2.20;99.90;;;;;;5023667;28;20487;-61
2024/01/21 01:53:35;;;;;;;2.33;2.13;;;2.20;99.10;;;;;;5020542;28;21026;-61
2024/01/21 01:56:04;;;;;;;3.43;2.67;;;2.20;95.80;;;;;;5015744;28;21234;-62
2024/01/21 01:58:36;;;;;;;5.30;2.73;;;2.20;99.90;;;;;;5012369;28;20570;-61
2024/01/21 02:01:04;;;;;;;2.80;2.60;;;2.20;99.50;;;;;;5008049;28;20578;-61
2024/01/21 02:03:33;;;;;;;2.80;2.50;;;2.30;96.50;;;;;;5009643;28;20491;-62
2024/01/21 02:06:01;;;;;;;3.30;2.80;;;2.30;96.40;;;;;;5014880;28;20521;-62
2024/01/21 02:08:29;;;;;;;3.30;3.00;;;2.30;96.50;;;;;;5010051;28;20475;-62
2024/01/21 02:10:57;;;;;;;3.50;2.80;;;2.30;93.90;;;;;;5011012;28;20487;-61
2024/01/21 02:13:25;;;;;;;3.60;3.10;;;2.30;95.50;;;;;;5017824;28;20519;-61
2024/01/21 02:15:54;;;;;;;3.93;3.00;;;2.30;99.90;;;;;;5008635;28;20935;-62
2024/01/21 02:18:22;;;;;;;3.07;2.77;;;2.30;97.90;;;;;;5016379;28;20470;-61
2024/01/21 02:20:50;;;;;;;3.60;2.77;;;2.30;97.90;;;;;;5017833;28;20487;-61
2024/01/21 02:23:20;;;;;;;4.27;2.90;;;2.30;97.80;;;;;;5009226;28;20682;-61
2024/01/21 02:25:48;;;;;;;3.40;3.03;;;2.30;96.50;;;;;;5008625;28;20497;-61
2024/01/21 02:28:16;;;;;;;3.43;2.80;;;2.20;97.60;;;;;;5014207;28;20915;-61
2024/01/21 02:30:44;;;;;;;3.17;2.87;;;2.20;99.10;;;;;;5015412;28;20495;-60
2024/01/21 02:33:13;;;;;;;6.10;2.83;;;2.20;99.80;;;;;;5007665;28;20503;-61
2024/01/21 02:35:41;;;;;;;3.07;2.83;;;2.20;98.30;;;;;;5006599;28;20527;-61
2024/01/21 02:38:09;;;;;;;3.97;3.23;;;2.20;99.20;;;;;;5008650;28;20554;-62
2024/01/21 02:40:39;;;;;;;3.57;3.00;;;2.20;96.30;;;;;;5002935;28;20510;-61
2024/01/21 02:43:07;;;;;;;4.60;2.70;;;2.20;98.10;;;;;;5010278;28;20529;-62
2024/01/21 02:45:35;;;;;;;3.03;2.73;;;2.10;98.60;;;;;;5004230;28;20503;-61
2024/01/21 02:48:04;;;;;;;3.47;2.97;;;2.20;98.20;;;;;;5015909;28;20479;-61
2024/01/21 02:50:32;;;;;;;4.70;3.43;;;2.10;99.50;;;;;;5005843;28;20494;-61
2024/01/21 02:53:00;;;;;;;3.37;2.97;;;2.10;97.20;;;;;;5005263;28;20539;-61
2024/01/21 02:55:28;;;;;;;3.30;3.00;;;2.10;96.00;;;;;;5007054;28;20638;-62
2024/01/21 02:57:58;;;;;;;4.80;2.83;;;2.10;96.00;;;;;;5010419;28;20481;-61
2024/01/21 03:00:26;;;;;;;4.63;2.60;;;2.20;95.90;;;;;;5012168;28;20538;-62
2024/01/21 03:02:53;;;;;;;4.20;3.17;;;2.10;96.00;;;;;;5007872;28;20498;-62
2024/01/21 03:05:22;;;;;;;3.27;2.97;;;2.10;99.90;;;;;;5014608;28;20494;-62
2024/01/21 03:07:50;;;;;;;3.10;2.67;;;2.10;97.50;;;;;;5005923;28;20479;-61
2024/01/21 03:10:18;;;;;;;3.87;3.13;;;2.00;97.40;;;;;;5011052;28;20483;-61
2024/01/21 03:12:46;;;;;;;3.40;2.90;;;2.00;96.10;;;;;;5015351;28;20495;-62
2024/01/21 03:15:16;;;;;;;3.13;2.83;;;2.10;95.10;;;;;;5011094;28;20852;-61
2024/01/21 03:17:44;;;;;;;4.10;3.10;;;2.00;96.20;;;;;;5015634;28;20463;-62
2024/01/21 03:20:12;;;;;;;5.00;4.50;;;2.00;97.50;;;;;;5010085;28;20667;-61
2024/01/21 03:22:40;;;;;;;6.03;3.37;;;2.00;96.70;;;;;;5009541;28;20491;-61
2024/01/21 03:25:08;;;;;;;5.20;3.33;;;2.00;95.40;;;;;;5015040;28;21182;-61
2024/01/21 03:27:36;;;;;;;3.03;2.73;;;2.00;92.60;;;;;;5023428;28;20526;-62
2024/01/21 03:30:05;;;;;;;4.50;3.57;;;2.10;93.60;;;;;;5006400;28;20560;-61
2024/01/21 03:32:34;;;;;;;8.93;3.20;;;2.00;91.60;;;;;;5014985;28;20527;-61
2024/01/21 03:35:02;;;;;;;4.93;3.43;;;2.00;91.40;;;;;;5013404;28;20470;-62
2024/01/21 03:37:30;;;;;;;4.13;3.27;;;2.00;93.40;;;;;;5021236;28;20980;-62
2024/01/21 03:39:58;;;;;;;4.67;3.63;;;2.00;95.00;;;;;;5017669;28;20471;-62
2024/01/21 03:42:26;;;;;;;4.50;3.70;;;2.00;95.00;;;;;;5020809;28;20592;-62
2024/01/21 03:44:54;;;;;;;4.40;3.63;;;1.90;91.90;;;;;;5017485;28;20549;-61
2024/01/21 03:47:22;;;;;;;3.97;3.57;;;1.90;91.50;;;;;;5011770;28;20479;-61
2024/01/21 03:49:52;;;;;;;4.60;3.13;;;1.90;90.90;;;;;;5011477;28;20478;-61
2024/01/21 03:52:20;;;;;;;5.00;3.87;;;1.90;96.70;;;;;;5008197;28;20498;-61
2024/01/21 03:54:49;;;;;;;4.20;3.50;;;1.80;93.50;;;;;;5010162;28;21446;-61
2024/01/21 03:57:17;;;;;;;4.40;3.73;;;1.80;93.80;;;;;;5009571;28;21799;-62
2024/01/21 03:59:47;;;;;;;4.90;3.50;;;1.80;93.90;;;;;;5008531;28;20474;-61
2024/01/21 04:02:15;;;;;;;4.10;3.67;;;1.80;94.90;;;;;;5008794;28;20503;-61
2024/01/21 04:04:45;;;;;;;6.43;3.23;;;1.80;95.20;;;;;;5009376;28;21034;-62
2024/01/21 04:07:15;;;;;;;4.40;3.27;;;1.80;97.70;;;;;;5011752;28;20476;-62
2024/01/21 04:09:43;;;;;;;3.70;3.10;;;1.80;95.50;;;;;;5010547;28;20867;-61
2024/01/21 04:12:12;;;;;;;3.97;3.57;;;1.80;94.70;;;;;;5011115;28;21049;-61
2024/01/21 04:14:48;;;;;;;4.43;3.33;;;1.80;92.50;;;;;;5012746;28;20478;-61
2024/01/21 04:17:16;;;;;;;4.40;3.67;;;1.80;91.40;;;;;;5007994;28;20479;-61
2024/01/21 04:19:45;;;;;;;5.10;3.30;;;1.80;90.10;;;;;;5004720;28;20553;-62
2024/01/21 04:22:16;;;;;;;4.60;3.70;;;1.80;91.00;;;;;;5009801;28;20487;-62
2024/01/21 04:24:44;;;;;;;4.43;3.40;;;1.80;90.30;;;;;;5005104;28;20537;-62
2024/01/21 04:27:12;;;;;;;3.90;3.50;;;1.80;90.70;;;;;;5015131;28;20854;-61
2024/01/21 04:29:40;;;;;;;3.40;3.00;;;1.80;92.10;;;;;;5009894;28;20523;-61
2024/01/21 04:32:08;;;;;;;3.50;3.07;;;1.80;92.30;;;;;;5021156;28;21003;-61
2024/01/21 04:34:36;;;;;;;3.87;3.33;;;1.80;89.80;;;;;;5018498;28;20490;-61
2024/01/21 04:37:04;;;;;;;5.27;3.90;;;1.80;90.00;;;;;;5017499;28;21023;-61
2024/01/21 04:39:34;;;;;;;3.60;3.30;;;1.80;89.40;;;;;;5011514;28;20471;-61
2024/01/21 04:42:02;;;;;;;4.93;3.67;;;1.80;86.90;;;;;;5017748;28;20553;-62
2024/01/21 04:44:30;;;;;;;5.07;3.80;;;1.80;86.70;;;;;;5019370;28;20634;-60
2024/01/21 04:46:58;;;;;;;4.60;3.90;;;1.80;88.40;;;;;;5017740;28;20927;-62
2024/01/21 04:49:26;;;;;;;4.53;3.17;;;1.80;88.10;;;;;;5019406;28;20459;-61
2024/01/21 04:51:54;;;;;;;5.33;3.33;;;1.80;90.40;;;;;;5016166;28;20506;-61
2024/01/21 04:54:22;;;;;;;4.27;3.87;;;1.80;90.40;;;;;;5006481;28;20468;-61
2024/01/21 04:56:52;;;;;;;4.73;3.50;;;1.70;91.60;;;;;;5022113;28;20794;-61
2024/01/21 04:59:20;;;;;;;5.60;3.57;;;1.70;92.10;;;;;;5024295;28;20935;-61
2024/01/21 05:01:49;;;;;;;4.03;3.30;;;1.70;92.70;;;;;;5014603;28;20569;-61
2024/01/21 05:04:17;;;;;;;3.90;2.80;;;1.70;90.90;;;;;;5017159;28;20532;-62
2024/01/21 05:06:45;;;;;;;3.70;2.80;;;1.80;91.10;;;;;;5021923;28;20495;-61
2024/01/21 05:09:13;;;;;;;3.70;3.20;;;1.80;87.90;;;;;;5022453;28;20467;-62
2024/01/21 05:11:42;;;;;;;5.13;3.00;;;1.80;84.80;;;;;;5007356;28;20861;-62
2024/01/21 05:14:12;;;;;;;3.23;2.90;;;1.90;82.80;;;;;;5017859;28;20570;-61
2024/01/21 05:16:40;;;;;;;3.43;2.90;;;2.00;80.10;;;;;;5012216;28;20488;-61
2024/01/21 05:19:08;;;;;;;3.30;2.70;;;2.00;77.60;;;;;;5016538;28;20475;-62
2024/01/21 05:21:36;;;;;;;3.37;2.87;;;2.00;76.60;;;;;;5007715;28;20587;-62
2024/01/21 05:24:04;;;;;;;3.80;3.03;;;2.10;77.30;;;;;;5010676;28;20497;-61
2024/01/21 05:26:43;;;;;;;5.30;2.80;;;2.10;77.50;;;;;;5010204;28;21704;-62
2024/01/21 05:29:13;;;;;;;3.87;2.57;;;2.10;77.80;;;;;;5015548;28;20934;-62
2024/01/21 05:31:41;;;;;;;3.13;2.83;;;2.10;76.70;;;;;;5014761;28;20598;-61
2024/01/21 05:34:09;;;;;;;3.30;2.77;;;2.10;77.70;;;;;;5010153;28;20578;-62
2024/01/21 05:36:37;;;;;;;3.20;2.70;;;2.10;76.90;;;;;;5006739;28;20467;-61
2024/01/21 05:39:05;;;;;;;2.97;2.70;;;2.20;76.10;;;;;;5018446;28;20845;-61
2024/01/21 05:41:35;;;;;;;4.23;2.80;;;2.10;76.40;;;;;;5004342;28;20491;-61
2024/01/21 05:44:03;;;;;;;4.73;2.90;;;2.20;75.70;;;;;;5003831;28;20881;-62
2024/01/21 05:46:32;;;;;;;2.80;2.40;;;2.20;77.30;;;;;;5018388;28;20839;-62
2024/01/21 05:49:00;;;;;;;3.73;2.70;;;2.20;79.20;;;;;;5014374;28;20571;-61
2024/01/21 05:51:28;;;;;;;4.00;2.60;;;2.20;79.00;;;;;;5004923;28;20573;-61
2024/01/21 05:53:56;;;;;;;3.40;2.97;;;2.20;80.30;;;;;;5008992;28;20487;-62
2024/01/21 05:56:24;;;;;;;4.00;2.67;;;2.20;78.80;;;;;;5017064;28;20464;-61
2024/01/21 05:58:52;;;;;;;2.87;2.57;;;2.20;78.10;;;;;;5013166;28;20471;-61
2024/01/21 06:01:20;;;;;;;3.40;2.80;;;2.20;79.50;;;;;;5009287;28;20487;-62
2024/01/21 06:03:50;;;;;;;3.60;2.97;;;2.20;79.80;;;;;;5015525;28;20553;-62
2024/01/21 06:06:18;;;;;;;3.10;2.73;;;2.20;78.60;;;;;;5006732;28;20637;-62
2024/01/21 06:08:46;;;;;;;3.10;2.43;;;2.20;76.80;;;;;;5010775;28;21570;-61
2024/01/21 06:11:14;;;;;;;3.17;2.20;;;2.20;77.10;;;;;;5013261;28;20620;-62
2024/01/21 06:13:42;;;;;;;3.50;2.40;;;2.20;74.40;;;;;;5017250;28;20483;-62
2024/01/21 06:16:16;;;;;;;2.87;2.60;;;2.20;75.50;;;;;;5015018;28;20842;-62
2024/01/21 06:18:44;;;;;;;2.97;2.60;;;2.20;74.70;;;;;;5015853;28;20509;-62
2024/01/21 06:21:16;;;;;;;7.50;2.30;;;2.30;76.60;;;;;;5019171;28;20479;-62
2024/01/21 06:23:44;;;;;;;2.70;2.40;;;2.30;75.10;;;;;;5016666;28;21055;-62
2024/01/21 06:26:16;;;;;;;2.40;1.97;;;2.30;72.20;;;;;;5015897;28;20505;-62
2024/01/21 06:28:44;;;;;;;2.83;2.40;;;2.30;72.60;;;;;;5008680;28;20515;-62
2024/01/21 06:31:12;;;;;;;3.17;2.47;;;2.30;72.30;;;;;;5006874;28;20580;-61
2024/01/21 06:33:42;;;;;;;4.27;2.83;;;2.30;73.80;;;;;;5013459;28;20923;-61
2024/01/21 06:36:11;;;;;;;3.03;2.30;;;2.30;71.40;;;;;;5013376;28;20513;-62
2024/01/21 06:38:40;;;;;;;4.67;3.03;;;2.30;71.70;;;;;;5001428;28;20571;-61
2024/01/21 06:41:08;;;;;;;3.40;2.30;;;2.30;71.70;;;;;;5010145;28;20559;-61
2024/01/21 06:43:36;;;;;;;3.87;2.17;;;2.30;71.30;;;;;;5007603;28;20998;-61
2024/01/21 06:46:04;;;;;;;2.73;2.30;;;2.30;71.50;;;;;;5003948;28;21661;-62
2024/01/21 06:48:32;;;;;;;3.57;2.30;;;2.30;70.20;;;;;;5019540;28;20507;-61
2024/01/21 06:51:01;;;;;;;3.23;2.47;;;2.30;70.00;;;;;;5027953;28;20546;-62
2024/01/21 06:53:29;;;;;;;2.43;2.23;;;2.30;69.50;;;;;;5027385;28;20494;-61
2024/01/21 06:56:04;;;;;;;2.50;2.30;;;2.30;68.50;;;;;;5012279;28;20492;-62
2024/01/21 06:58:32;;;;;;;3.53;2.30;;;2.30;68.60;;;;;;5010955;28;20962;-61
2024/01/21 07:01:00;;;;;;;3.00;2.40;;;2.30;68.20;;;;;;5017234;28;20487;-61
2024/01/21 07:03:29;;;;;;;3.80;2.20;;;2.30;68.50;;;;;;4999597;28;20498;-62
2024/01/21 07:05:57;;;;;;;3.53;3.00;;;2.40;67.90;;;;;;5011314;28;20475;-62
2024/01/21 07:08:25;;;;;;;2.40;2.20;;;2.40;66.20;;;;;;5015363;28;20499;-61
2024/01/21 07:10:53;;;;;;;2.63;2.43;;;2.40;66.10;;;;;;5002263;28;20495;-62
2024/01/21 07:13:22;;;;;;;3.03;2.10;;;2.40;67.30;;;;;;5006756;28;20487;-61
2024/01/21 07:15:51;;;;;;;3.10;2.60;;;2.40;67.10;;;;;;5008538;28;20853;-62
2024/01/21 07:18:50;;;;;;;4.17;3.20;;;2.40;68.20;;;;;;5008162;28;20467;-62
2024/01/21 07:21:18;;;;;;;3.40;2.60;;;2.40;66.80;;;;;;5003533;28;20482;-62
2024/01/21 07:23:47;;;;;;;3.07;2.67;;;2.40;67.60;;;;;;5014513;28;20700;-62
2024/01/21 07:26:15;;;;;;;3.83;2.63;;;2.40;65.30;;;;;;5016075;28;20972;-62
2024/01/21 07:28:44;;;;;;;2.97;2.50;;;2.40;66.50;;;;;;4996246;28;20480;-62
2024/01/21 07:31:12;;;;;;;2.50;2.27;;;2.40;65.70;;;;;;4995573;28;21772;-62
2024/01/21 07:33:40;;;;;;;2.43;2.23;;;2.40;65.40;;;;;;5004427;28;21001;-62
2024/01/21 07:36:09;;;;;;;2.50;2.30;;;2.40;67.20;;;;;;5006818;28;20549;-61
2024/01/21 07:38:35;;;;;;;4.70;2.67;;;2.40;65.80;;;;;;5011571;28;20479;-62
2024/01/21 07:41:04;;;;;;;3.50;2.27;;;2.40;66.40;;;;;;5010428;28;20482;-62
2024/01/21 07:43:32;;;;;;;3.73;2.60;;;2.40;65.90;;;;;;5006569;28;20577;-62
2024/01/21 07:46:01;;;;;;;2.70;2.10;;;2.40;65.30;;;;;;5016893;28;20562;-62
2024/01/21 07:48:29;;;;;;;2.20;2.00;;;2.40;65.10;;;;;;5007466;28;20522;-62
2024/01/21 07:50:57;;;;;;;2.73;2.37;;;2.40;65.10;;;;;;5008315;28;20586;-61
2024/01/21 07:53:25;;;;;;;3.17;2.50;;;2.40;66.70;;;;;;5008058;28;20491;-61
2024/01/21 07:55:55;;;;;;;2.20;2.00;;;2.40;65.10;;;;;;5007438;28;20580;-61
2024/01/21 07:58:23;;;;;;;3.80;2.20;;;2.40;65.50;;;;;;5004790;28;20677;-61
2024/01/21 08:00:51;;;;;;;2.90;2.27;;;2.40;69.20;;;;;;4997874;28;21187;-62
2024/01/21 08:03:20;;;;;;;2.90;2.13;;;2.40;66.20;;;;;;5001590;28;20604;-62
2024/01/21 08:05:49;;;;;;;3.00;2.50;;;2.40;64.80;;;;;;5014822;28;22519;-61
2024/01/21 08:08:17;;;;;;;2.60;2.40;;;2.40;63.50;;;;;;5011673;28;20495;-61
2024/01/21 08:10:45;;;;;;;3.37;2.07;;;2.50;63.40;;;;;;5008683;28;20586;-61
2024/01/21 08:13:13;;;;;;;3.80;2.73;;;2.50;63.90;;;;;;5008826;28;20526;-62
2024/01/21 08:15:41;;;;;;;2.90;2.60;;;2.50;63.60;;;;;;5009412;28;20578;-61
2024/01/21 08:18:10;;;;;;;2.83;2.57;;;2.50;63.60;;;;;;5008065;28;20863;-61
2024/01/21 08:20:39;;;;;;;4.97;3.17;;;2.60;60.30;;;;;;4985006;28;21351;-61
2024/01/21 08:23:07;;;;;;;2.97;2.40;;;2.60;60.40;;;;;;4997882;28;20604;-60
2024/01/21 08:25:35;;;;;;;5.10;2.70;;;2.60;61.00;;;;;;4998413;28;20471;-61
2024/01/21 08:37:04;;;;;;;2.47;2.27;;;2.80;59.70;;;;;;5020637;28;20477;-59
2024/01/21 08:39:32;;;;;;;3.60;2.53;;;2.80;61.50;;;;;;5023810;28;20476;-57
2024/01/21 08:42:00;;;;;;;3.37;3.07;;;2.80;60.10;;;;;;5013001;28;20541;-57
2024/01/21 08:44:28;;;;;;;3.73;2.33;;;2.90;59.20;;;;;;4992417;28;24368;-58
2024/01/21 08:46:57;;;;;;;2.80;2.17;;;2.90;60.90;;;;;;5001106;28;20475;-58
2024/01/21 08:49:26;;;;;;;3.53;2.70;;;2.90;60.00;;;;;;5020895;23;20487;-88
2024/01/21 08:51:58;;;;;;;3.60;2.30;;;3.00;58.40;;;;;;5070992;28;20510;-91
2024/01/21 08:54:29;;;;;;;2.90;2.30;;;3.00;58.50;;;;;;5051664;28;20491;-90
2024/01/21 08:56:58;;;;;;;3.97;2.87;;;3.00;58.10;;;;;;5045786;28;21001;-89
2024/01/21 08:59:26;;;;;;;3.10;2.40;;;3.10;58.90;;;;;;5044383;28;20528;-88
2024/01/21 09:01:55;;;;;;;3.07;2.37;;;3.10;58.60;;;;;;5044196;28;20857;-89
2024/01/21 09:04:24;;;;;;;2.87;2.30;;;3.10;58.50;;;;;;5042375;28;20491;-86
2024/01/21 09:06:55;;;;;;;4.13;2.53;;;3.10;57.30;;;;;;5048677;28;20879;-89
2024/01/21 09:09:24;;;;;;;2.90;2.60;;;3.20;56.80;;;;;;5050563;28;20482;-86
2024/01/21 09:11:57;;;;;;;3.67;2.80;;;3.30;57.30;;;;;;5046006;28;20533;-87
2024/01/21 09:14:32;;;;;;;2.60;2.40;;;3.20;57.10;;;;;;5045597;28;20489;-91
2024/01/21 09:17:05;;;;;;;3.63;2.90;;;3.30;55.90;;;;;;5044279;28;20569;-89
2024/01/21 09:19:34;;;;;;;2.93;2.63;;;3.30;56.00;;;;;;5045297;28;20471;-91
2024/01/21 09:22:04;;;;;;;4.97;2.57;;;3.40;55.80;;;;;;5044267;28;20462;-90
2024/01/21 09:24:33;;;;;;;4.17;2.27;;;3.40;54.90;;;;;;5044880;28;20533;-90
2024/01/21 09:27:32;;;;;;;2.43;2.23;;;3.50;54.60;;;;;;5046386;28;20532;-92
2024/01/21 09:30:03;;;;;;;3.40;2.13;;;3.50;55.10;;;;;;5045327;28;20547;-91
2024/01/21 09:32:32;;;;;;;4.77;2.70;;;3.60;54.50;;;;;;5048169;28;20494;-91
2024/01/21 09:35:02;;;;;;;2.57;2.20;;;3.60;56.90;;;;;;5060239;28;20518;-90
2024/01/21 09:37:30;;;;;;;2.83;2.30;;;3.60;58.10;;;;;;5064956;28;20470;-88
2024/01/21 09:40:00;;;;;;;2.53;2.30;;;3.60;55.50;;;;;;5062358;28;21493;-90
2024/01/21 09:45:23;;;;;;;2.90;2.60;;;3.70;55.20;;;;;;5061431;28;20515;-92
2024/01/21 09:48:01;;;;;;;2.90;2.60;;;3.70;54.60;;;;;;5063165;28;20567;-92
2024/01/21 09:50:32;;;;;;;3.80;2.60;;;3.80;54.80;;;;;;5064305;28;20560;-90
2024/01/21 09:53:01;;;;;;;3.00;2.70;;;3.80;53.90;;;;;;5060351;28;20489;-91
2024/01/21 09:55:31;;;;;;;2.80;2.60;;;3.80;56.60;;;;;;5062905;28;20466;-87
2024/01/21 09:58:03;;;;;;;2.30;2.10;;;3.80;55.80;;;;;;5061063;28;20504;-92
2024/01/21 10:00:39;;;;;;;3.97;3.23;;;3.80;55.00;;;;;;5062451;28;20517;-92
2024/01/21 10:03:09;;;;;;;3.00;2.20;;;3.90;54.00;;;;;;5060057;28;20489;-88
2024/01/21 10:05:38;;;;;;;2.63;2.43;;;3.90;56.40;;;;;;5064007;28;20495;-89
2024/01/21 10:08:08;;;;;;;3.33;3.03;;;3.90;54.90;;;;;;5064469;28;20513;-92
2024/01/21 10:10:37;;;;;;;3.37;2.83;;;3.90;53.30;;;;;;5064246;28;20490;-91
2024/01/21 10:13:14;;;;;;;2.97;2.67;;;4.00;54.10;;;;;;5064259;28;20750;-93
2024/01/21 10:16:02;;;;;;;3.40;2.67;;;4.00;53.80;;;;;;5065200;28;20542;-90
2024/01/21 10:22:06;;;;;;;3.60;3.20;;;4.10;54.70;;;;;;5068381;28;20464;-91
2024/01/21 10:24:42;;;;;;;3.80;2.90;;;4.10;55.60;;;;;;5071592;28;21054;-90
2024/01/21 10:27:12;;;;;;;6.37;2.50;;;4.00;54.10;;;;;;5073346;28;20476;-89
2024/01/21 10:29:49;;;;;;;3.90;2.77;;;4.10;55.10;;;;;;5071164;28;20465;-89
2024/01/21 10:32:19;;;;;;;2.83;2.63;;;4.10;55.00;;;;;;5071234;28;20466;-90
2024/01/21 10:34:51;;;;;;;3.90;3.10;;;4.10;55.00;;;;;;5067403;28;21072;-89
2024/01/21 10:37:23;;;;;;;2.80;2.27;;;4.10;54.70;;;;;;5063440;28;20941;-89
2024/01/21 10:39:53;;;;;;;3.87;2.70;;;4.10;54.10;;;;;;5063692;28;20485;-88
2024/01/21 10:42:22;;;;;;;2.80;2.57;;;4.10;56.00;;;;;;5060759;28;20462;-91
2024/01/21 10:44:55;;;;;;;2.90;2.70;;;4.10;55.80;;;;;;5046244;28;20493;-88
2024/01/21 10:47:27;;;;;;;3.90;2.83;;;4.10;57.20;;;;;;5053852;28;21740;-89
2024/01/21 10:49:58;;;;;;;3.80;2.63;;;4.10;55.40;;;;;;5055836;28;20549;-92
2024/01/21 10:55:18;;;;;;;2.63;2.43;;;4.20;55.40;;;;;;5061189;28;20459;-92
2024/01/21 10:57:47;;;;;;;2.80;2.40;;;4.20;55.10;;;;;;5026961;22;20577;-61
2024/01/21 11:00:16;;;;;;;3.30;3.00;;;4.20;56.50;;;;;;4989532;28;20879;-62
2024/01/21 11:03:23;;;;;;;4.23;2.87;;;4.20;55.40;;;;;;4997392;28;20989;-62
2024/01/21 11:05:54;;;;;;;3.50;3.20;;;4.20;56.00;;;;;;4998154;28;21684;-63
2024/01/21 11:08:24;;;;;;;3.60;3.13;;;4.30;56.00;;;;;;4997043;28;20527;-64
2024/01/21 11:10:59;;;;;;;3.60;2.80;;;4.30;56.20;;;;;;4998647;28;20577;-61
2024/01/21 11:13:43;;;;;;;4.10;3.17;;;4.30;55.80;;;;;;4999254;28;20601;-61
2024/01/21 11:16:14;;;;;;;3.70;2.93;;;4.40;57.10;;;;;;5005910;28;20475;-61
2024/01/21 11:18:47;;;;;;;2.80;2.57;;;4.40;55.20;;;;;;4988209;28;21427;-60
2024/01/21 11:21:20;;;;;;;4.40;3.30;;;4.50;55.00;;;;;;4972189;23;20499;-60
2024/01/21 11:23:59;;;;;;;3.27;2.97;;;4.50;56.20;;;;;;4999719;28;20473;-59
2024/01/21 11:26:29;;;;;;;3.80;3.27;;;4.50;56.40;;;;;;4998640;28;20471;-59
2024/01/21 11:28:59;;;;;;;6.57;3.10;;;4.50;57.40;;;;;;4999970;28;21025;-60
2024/01/21 11:31:31;;;;;;;3.33;3.03;;;4.50;57.50;;;;;;4979813;28;20495;-60
2024/01/21 11:34:06;;;;;;;3.50;3.20;;;4.50;58.60;;;;;;4972844;28;20483;-60
2024/01/21 11:36:34;;;;;;;4.83;3.50;;;4.50;58.00;;;;;;4977456;28;20978;-60
2024/01/21 11:39:02;;;;;;;3.83;3.13;;;4.50;58.10;;;;;;4971160;28;20562;-58
2024/01/21 11:41:38;;;;;;;4.60;2.90;;;4.60;58.40;;;;;;4984623;28;20620;-59
2024/01/21 11:44:19;;;;;;;5.20;3.30;;;4.60;58.90;;;;;;4987929;28;20804;-59
2024/01/21 11:46:48;;;;;;;4.80;3.23;;;4.50;58.80;;;;;;4991420;28;20997;-59
2024/01/21 11:49:17;;;;;;;4.37;3.30;;;4.50;58.90;;;;;;4984139;28;20499;-60
2024/01/21 11:51:45;;;;;;;3.30;2.90;;;4.50;60.30;;;;;;4971856;28;20498;-59
2024/01/21 11:54:14;;;;;;;5.07;3.70;;;4.50;60.70;;;;;;4986694;28;20859;-59
2024/01/21 11:56:42;;;;;;;4.37;4.07;;;4.60;61.30;;;;;;4985870;28;20460;-60
2024/01/21 11:59:15;;;;;;;3.93;3.20;;;4.60;60.80;;;;;;4992898;28;20475;-60
2024/01/21 12:01:44;;;;;;;5.30;3.63;;;4.60;61.80;;;;;;4989524;28;21073;-59
2024/01/21 12:04:13;;;;;;;4.80;4.03;;;4.60;63.00;;;;;;4981271;28;20841;-60
2024/01/21 12:06:44;;;;;;;4.00;3.50;;;4.60;64.50;;;;;;4980063;28;20468;-59
2024/01/21 12:09:13;;;;;;;4.73;3.83;;;4.60;65.20;;;;;;4979827;28;20617;-59
2024/01/21 12:11:42;;;;;;;5.33;4.20;;;4.70;67.10;;;;;;4987892;28;20582;-59
2024/01/21 12:14:13;;;;;;;4.20;3.43;;;4.70;70.30;;;;;;4987972;28;20472;-60
2024/01/21 12:16:42;;;;;;;4.83;4.00;;;4.70;70.60;;;;;;4987256;28;21184;-59
2024/01/21 12:19:12;;;;;;;4.47;4.07;;;4.70;72.80;;;;;;4987875;28;20461;-59
2024/01/21 12:21:44;;;;;;;4.40;4.00;;;4.70;72.10;;;;;;4995871;28;20493;-60
2024/01/21 12:24:12;;;;;;;5.27;4.77;;;4.80;73.10;;;;;;4995964;28;20495;-60
2024/01/21 12:26:40;;;;;;;4.60;3.90;;;4.80;75.60;;;;;;4994647;28;20465;-61
2024/01/21 12:29:10;;;;;;;7.43;4.47;;;4.80;75.40;;;;;;4993034;28;20614;-62
2024/01/21 12:31:40;;;;;;;5.87;3.87;;;4.80;74.40;;;;;;4992947;28;20921;-62
2024/01/21 12:34:09;;;;;;;5.43;4.10;;;4.80;75.40;;;;;;4994706;28;20476;-60
2024/01/21 12:36:39;;;;;;;4.70;4.30;;;4.90;76.70;;;;;;4994644;28;20886;-61
2024/01/21 12:39:10;;;;;;;6.17;4.53;;;4.90;78.80;;;;;;4996147;28;20500;-61
2024/01/21 12:41:39;;;;;;;4.60;3.90;;;5.00;80.70;;;;;;4995991;28;21452;-61
2024/01/21 12:44:07;;;;;;;4.83;4.00;;;4.90;77.10;;;;;;4996461;28;20992;-60
2024/01/21 12:46:37;;;;;;;5.67;4.27;;;4.90;79.80;;;;;;4996060;28;20476;-60
2024/01/21 12:49:05;;;;;;;4.47;3.90;;;4.90;79.50;;;;;;4996064;28;20581;-59
2024/01/21 12:51:34;;;;;;;6.27;4.47;;;4.90;78.50;;;;;;4993822;28;20490;-64
2024/01/21 12:54:03;;;;;;;4.40;3.90;;;4.80;80.70;;;;;;4992351;28;20551;-57
2024/01/21 12:56:32;;;;;;;5.70;4.50;;;4.80;81.40;;;;;;4993931;28;20567;-60
2024/01/21 12:59:04;;;;;;;4.63;3.80;;;4.80;80.70;;;;;;4991804;28;20965;-63
2024/01/21 13:01:32;;;;;;;7.30;4.27;;;4.80;81.20;;;;;;4995776;28;20524;-61
2024/01/21 13:04:00;;;;;;;5.70;4.20;;;4.90;84.50;;;;;;4993458;28;20464;-64
2024/01/21 13:06:29;;;;;;;5.67;4.90;;;4.90;83.70;;;;;;4992165;28;20570;-64
2024/01/21 13:08:57;;;;;;;6.83;4.10;;;4.90;86.00;;;;;;4994624;28;20511;-61
2024/01/21 13:11:26;;;;;;;6.73;5.20;;;4.90;85.10;;;;;;4990803;28;20592;-61
2024/01/21 13:13:55;;;;;;;9.73;7.20;;;4.90;86.10;;;;;;4994312;28;20861;-60
2024/01/21 13:16:23;;;;;;;6.33;4.93;;;4.90;89.80;;;;;;4993815;28;20471;-60
2024/01/21 13:18:51;;;;;;;4.97;4.57;;;4.90;90.00;;;;;;4986406;28;20480;-60
2024/01/21 13:21:19;;;;;;;6.77;4.90;;;4.90;89.90;;;;;;4995527;28;20496;-60
2024/01/21 13:23:49;;;;;;;5.40;4.90;;;5.00;89.90;;;;;;4995441;28;20480;-60
2024/01/21 13:26:19;;;;;;;4.70;4.30;;;4.90;90.50;;;;;;4994626;28;21096;-60
2024/01/21 13:30:43;;;;;;;5.30;4.80;;;4.90;92.00;;;;;;4993148;28;21061;-60